sensor_id;sensor_type;location;lat;lon;timestamp;temperature;humidity
78541;SHT31;67835;51.968;5.646;2023-04-01T00:02:13;12.2;79.1
78541;SHT31;67835;51.968;5.646;2023-04-01T00:04:43;12.2;79.1
78541;SHT31;67835;51.968;5.646;2023-04-01T00:07:14;12.2;78.9
78541;SHT31;67835;51.968;5.646;2023-04-01T00:09:44;12.2;78.8
78541;SHT31;67835;51.968;5.646;2023-04-01T00:12:13;12.2;78.7
78541;SHT31;67835;51.968;5.646;2023-04-01T00:14:43;12.2;78.7
78541;SHT31;67835;51.968;5.646;2023-04-01T00:17:13;12.2;78.6
78541;SHT31;67835;51.968;5.646;2023-04-01T00:19:44;12.2;78.6
78541;SHT31;67835;51.968;5.646;2023-04-01T00:22:14;12.2;78.5
78541;SHT31;67835;51.968;5.646;2023-04-01T00:24:44;12.2;78.3
78541;SHT31;67835;51.968;5.646;2023-04-01T00:27:14;12.2;78.4
78541;SHT31;67835;51.968;5.646;2023-04-01T00:29:45;12.2;78.4
78541;SHT31;67835;51.968;5.646;2023-04-01T00:32:15;12.2;78.5
78541;SHT31;67835;51.968;5.646;2023-04-01T00:34:45;12.2;78.4
78541;SHT31;67835;51.968;5.646;2023-04-01T00:37:15;12.2;78.5
78541;SHT31;67835;51.968;5.646;2023-04-01T00:39:45;12.2;78.5
78541;SHT31;67835;51.968;5.646;2023-04-01T00:42:15;12.3;78.5
78541;SHT31;67835;51.968;5.646;2023-04-01T00:44:49;12.3;78.4
78541;SHT31;67835;51.968;5.646;2023-04-01T00:47:21;12.3;78.3
78541;SHT31;67835;51.968;5.646;2023-04-01T00:49:53;12.3;78.5
78541;SHT31;67835;51.968;5.646;2023-04-01T00:52:25;12.3;78.6
78541;SHT31;67835;51.968;5.646;2023-04-01T00:54:59;12.3;78.7
78541;SHT31;67835;51.968;5.646;2023-04-01T00:57:34;12.3;78.7
78541;SHT31;67835;51.968;5.646;2023-04-01T01:00:10;12.3;78.7
78541;SHT31;67835;51.968;5.646;2023-04-01T01:02:43;12.4;78.6
78541;SHT31;67835;51.968;5.646;2023-04-01T01:05:16;12.4;78.7
78541;SHT31;67835;51.968;5.646;2023-04-01T01:07:56;12.4;78.7
78541;SHT31;67835;51.968;5.646;2023-04-01T01:10:31;12.4;78.5
78541;SHT31;67835;51.968;5.646;2023-04-01T01:13:13;12.4;78.5
78541;SHT31;67835;51.968;5.646;2023-04-01T01:15:51;12.4;78.1
78541;SHT31;67835;51.968;5.646;2023-04-01T01:18:33;12.4;78.2
78541;SHT31;67835;51.968;5.646;2023-04-01T01:21:19;12.4;78.3
78541;SHT31;67835;51.968;5.646;2023-04-01T01:24:15;12.4;78.1
78541;SHT31;67835;51.968;5.646;2023-04-01T01:26:59;12.5;77.6
78541;SHT31;67835;51.968;5.646;2023-04-01T01:29:47;12.5;77.1
78541;SHT31;67835;51.968;5.646;2023-04-01T01:32:41;12.5;76.5
78541;SHT31;67835;51.968;5.646;2023-04-01T01:35:21;12.4;76.6
78541;SHT31;67835;51.968;5.646;2023-04-01T01:37:56;12.4;76.5
78541;SHT31;67835;51.968;5.646;2023-04-01T01:40:29;12.4;76.3
78541;SHT31;67835;51.968;5.646;2023-04-01T01:43:06;12.4;76.1
78541;SHT31;67835;51.968;5.646;2023-04-01T01:45:44;12.4;76.1
78541;SHT31;67835;51.968;5.646;2023-04-01T01:48:17;12.4;75.8
78541;SHT31;67835;51.968;5.646;2023-04-01T01:50:48;12.4;75.8
78541;SHT31;67835;51.968;5.646;2023-04-01T01:53:20;12.4;75.8
78541;SHT31;67835;51.968;5.646;2023-04-01T01:55:51;12.4;75.7
78541;SHT31;67835;51.968;5.646;2023-04-01T01:58:26;12.4;75.6
78541;SHT31;67835;51.968;5.646;2023-04-01T02:00:59;12.4;75.6
78541;SHT31;67835;51.968;5.646;2023-04-01T02:03:34;12.4;75.7
78541;SHT31;67835;51.968;5.646;2023-04-01T02:06:08;12.4;75.9
78541;SHT31;67835;51.968;5.646;2023-04-01T02:08:42;12.4;75.8
78541;SHT31;67835;51.968;5.646;2023-04-01T02:11:17;12.4;76.1
78541;SHT31;67835;51.968;5.646;2023-04-01T02:13:53;12.4;76.4
78541;SHT31;67835;51.968;5.646;2023-04-01T02:16:29;12.4;76.6
78541;SHT31;67835;51.968;5.646;2023-04-01T02:19:04;12.4;76.2
78541;SHT31;67835;51.968;5.646;2023-04-01T02:21:39;12.4;76.2
78541;SHT31;67835;51.968;5.646;2023-04-01T02:24:14;12.4;76.4
78541;SHT31;67835;51.968;5.646;2023-04-01T02:26:46;12.3;76.3
78541;SHT31;67835;51.968;5.646;2023-04-01T02:29:19;12.3;76.4
78541;SHT31;67835;51.968;5.646;2023-04-01T02:31:50;12.3;76.7
78541;SHT31;67835;51.968;5.646;2023-04-01T02:34:23;12.3;76.9
78541;SHT31;67835;51.968;5.646;2023-04-01T02:36:55;12.3;76.9
78541;SHT31;67835;51.968;5.646;2023-04-01T02:39:26;12.2;76.9
78541;SHT31;67835;51.968;5.646;2023-04-01T02:41:56;12.2;77.1
78541;SHT31;67835;51.968;5.646;2023-04-01T02:44:26;12.2;77.2
78541;SHT31;67835;51.968;5.646;2023-04-01T02:46:55;12.2;77.3
78541;SHT31;67835;51.968;5.646;2023-04-01T02:49:25;12.2;77.3
78541;SHT31;67835;51.968;5.646;2023-04-01T02:51:54;12.1;77.2
78541;SHT31;67835;51.968;5.646;2023-04-01T02:54:23;12.1;77.2
78541;SHT31;67835;51.968;5.646;2023-04-01T02:56:53;12.1;77.2
78541;SHT31;67835;51.968;5.646;2023-04-01T02:59:22;12.1;77.1
78541;SHT31;67835;51.968;5.646;2023-04-01T03:01:55;12.1;77.4
78541;SHT31;67835;51.968;5.646;2023-04-01T03:04:25;12.0;77.4
78541;SHT31;67835;51.968;5.646;2023-04-01T03:06:54;12.0;77.3
78541;SHT31;67835;51.968;5.646;2023-04-01T03:09:24;12.0;77.4
78541;SHT31;67835;51.968;5.646;2023-04-01T03:11:54;12.0;77.4
78541;SHT31;67835;51.968;5.646;2023-04-01T03:14:25;12.0;77.6
78541;SHT31;67835;51.968;5.646;2023-04-01T03:16:55;12.0;77.6
78541;SHT31;67835;51.968;5.646;2023-04-01T03:19:24;12.0;77.7
78541;SHT31;67835;51.968;5.646;2023-04-01T03:21:54;12.0;77.7
78541;SHT31;67835;51.968;5.646;2023-04-01T03:24:23;12.0;77.3
78541;SHT31;67835;51.968;5.646;2023-04-01T03:26:53;12.0;77.3
78541;SHT31;67835;51.968;5.646;2023-04-01T03:29:22;12.0;77.3
78541;SHT31;67835;51.968;5.646;2023-04-01T03:31:52;12.0;77.2
78541;SHT31;67835;51.968;5.646;2023-04-01T03:34:25;12.0;77.1
78541;SHT31;67835;51.968;5.646;2023-04-01T03:36:57;12.0;77.1
78541;SHT31;67835;51.968;5.646;2023-04-01T03:39:27;11.9;77.5
78541;SHT31;67835;51.968;5.646;2023-04-01T03:41:56;11.9;77.2
78541;SHT31;67835;51.968;5.646;2023-04-01T03:44:26;11.9;77.5
78541;SHT31;67835;51.968;5.646;2023-04-01T03:47:00;11.9;77.4
78541;SHT31;67835;51.968;5.646;2023-04-01T03:49:31;11.9;77.4
78541;SHT31;67835;51.968;5.646;2023-04-01T03:52:01;11.9;77.6
78541;SHT31;67835;51.968;5.646;2023-04-01T03:54:31;11.9;77.5
78541;SHT31;67835;51.968;5.646;2023-04-01T03:57:01;11.9;77.7
78541;SHT31;67835;51.968;5.646;2023-04-01T03:59:30;11.9;77.8
78541;SHT31;67835;51.968;5.646;2023-04-01T04:01:59;11.9;77.6
78541;SHT31;67835;51.968;5.646;2023-04-01T04:04:30;11.9;77.6
78541;SHT31;67835;51.968;5.646;2023-04-01T04:07:00;11.9;77.4
78541;SHT31;67835;51.968;5.646;2023-04-01T04:09:32;11.9;77.7
78541;SHT31;67835;51.968;5.646;2023-04-01T04:12:01;11.9;77.7
78541;SHT31;67835;51.968;5.646;2023-04-01T04:14:32;11.9;77.7
78541;SHT31;67835;51.968;5.646;2023-04-01T04:17:04;11.9;77.8
78541;SHT31;67835;51.968;5.646;2023-04-01T04:19:35;11.9;77.8
78541;SHT31;67835;51.968;5.646;2023-04-01T04:22:05;11.9;77.8
78541;SHT31;67835;51.968;5.646;2023-04-01T04:24:37;11.9;77.9
78541;SHT31;67835;51.968;5.646;2023-04-01T04:27:10;11.9;78.0
78541;SHT31;67835;51.968;5.646;2023-04-01T04:29:40;11.9;78.1
78541;SHT31;67835;51.968;5.646;2023-04-01T04:32:10;11.9;78.1
78541;SHT31;67835;51.968;5.646;2023-04-01T04:34:40;11.9;78.1
78541;SHT31;67835;51.968;5.646;2023-04-01T04:37:10;11.9;78.2
78541;SHT31;67835;51.968;5.646;2023-04-01T04:39:39;11.9;78.1
78541;SHT31;67835;51.968;5.646;2023-04-01T04:42:11;11.9;78.1
78541;SHT31;67835;51.968;5.646;2023-04-01T04:44:40;11.9;78.2
78541;SHT31;67835;51.968;5.646;2023-04-01T04:47:10;11.9;78.3
78541;SHT31;67835;51.968;5.646;2023-04-01T04:49:39;11.9;78.4
78541;SHT31;67835;51.968;5.646;2023-04-01T04:52:09;11.9;78.4
78541;SHT31;67835;51.968;5.646;2023-04-01T04:54:39;11.9;78.5
78541;SHT31;67835;51.968;5.646;2023-04-01T04:57:08;11.9;78.6
78541;SHT31;67835;51.968;5.646;2023-04-01T04:59:37;11.9;78.6
78541;SHT31;67835;51.968;5.646;2023-04-01T05:02:09;11.9;78.7
78541;SHT31;67835;51.968;5.646;2023-04-01T05:04:38;12.0;78.7
78541;SHT31;67835;51.968;5.646;2023-04-01T05:07:08;12.0;78.7
78541;SHT31;67835;51.968;5.646;2023-04-01T05:09:38;12.0;78.8
78541;SHT31;67835;51.968;5.646;2023-04-01T05:12:08;12.0;78.9
78541;SHT31;67835;51.968;5.646;2023-04-01T05:14:40;12.0;79.0
78541;SHT31;67835;51.968;5.646;2023-04-01T05:17:11;12.0;79.1
78541;SHT31;67835;51.968;5.646;2023-04-01T05:19:42;12.0;79.2
78541;SHT31;67835;51.968;5.646;2023-04-01T05:22:11;12.0;79.2
78541;SHT31;67835;51.968;5.646;2023-04-01T05:24:41;12.1;79.1
78541;SHT31;67835;51.968;5.646;2023-04-01T05:27:10;12.1;79.0
78541;SHT31;67835;51.968;5.646;2023-04-01T05:29:40;12.1;78.9
78541;SHT31;67835;51.968;5.646;2023-04-01T05:32:10;12.2;78.9
78541;SHT31;67835;51.968;5.646;2023-04-01T05:34:39;12.2;78.8
78541;SHT31;67835;51.968;5.646;2023-04-01T05:37:09;12.2;78.6
78541;SHT31;67835;51.968;5.646;2023-04-01T05:39:39;12.3;78.5
78541;SHT31;67835;51.968;5.646;2023-04-01T05:42:08;12.3;78.4
78541;SHT31;67835;51.968;5.646;2023-04-01T05:44:38;12.3;78.3
78541;SHT31;67835;51.968;5.646;2023-04-01T05:47:08;12.4;78.2
78541;SHT31;67835;51.968;5.646;2023-04-01T05:49:38;12.4;78.3
78541;SHT31;67835;51.968;5.646;2023-04-01T05:52:07;12.4;78.3
78541;SHT31;67835;51.968;5.646;2023-04-01T05:54:37;12.4;78.2
78541;SHT31;67835;51.968;5.646;2023-04-01T05:57:07;12.5;78.2
78541;SHT31;67835;51.968;5.646;2023-04-01T05:59:36;12.5;78.1
78541;SHT31;67835;51.968;5.646;2023-04-01T06:02:14;12.5;78.1
78541;SHT31;67835;51.968;5.646;2023-04-01T06:04:47;12.5;77.9
78541;SHT31;67835;51.968;5.646;2023-04-01T06:07:18;12.6;77.9
78541;SHT31;67835;51.968;5.646;2023-04-01T06:09:48;12.6;77.8
78541;SHT31;67835;51.968;5.646;2023-04-01T06:12:38;12.6;77.7
78541;SHT31;67835;51.968;5.646;2023-04-01T06:15:25;12.6;77.6
78541;SHT31;67835;51.968;5.646;2023-04-01T06:18:44;12.7;77.6
78541;SHT31;67835;51.968;5.646;2023-04-01T06:21:28;12.7;77.5
78541;SHT31;67835;51.968;5.646;2023-04-01T06:24:12;12.7;77.4
78541;SHT31;67835;51.968;5.646;2023-04-01T06:26:53;12.7;77.4
78541;SHT31;67835;51.968;5.646;2023-04-01T06:29:47;12.8;77.5
78541;SHT31;67835;51.968;5.646;2023-04-01T06:32:48;12.8;77.3
78541;SHT31;67835;51.968;5.646;2023-04-01T06:35:32;12.9;77.3
78541;SHT31;67835;51.968;5.646;2023-04-01T06:38:19;12.9;77.1
78541;SHT31;67835;51.968;5.646;2023-04-01T06:41:05;13.0;76.6
78541;SHT31;67835;51.968;5.646;2023-04-01T06:43:49;13.0;76.4
78541;SHT31;67835;51.968;5.646;2023-04-01T06:46:29;13.1;76.4
78541;SHT31;67835;51.968;5.646;2023-04-01T06:49:28;13.1;76.1
78541;SHT31;67835;51.968;5.646;2023-04-01T06:52:11;13.2;75.4
78541;SHT31;67835;51.968;5.646;2023-04-01T06:54:48;13.2;75.4
78541;SHT31;67835;51.968;5.646;2023-04-01T06:57:28;13.2;75.1
78541;SHT31;67835;51.968;5.646;2023-04-01T07:00:02;13.3;74.9
78541;SHT31;67835;51.968;5.646;2023-04-01T07:02:41;13.3;74.9
78541;SHT31;67835;51.968;5.646;2023-04-01T07:05:15;13.4;74.7
78541;SHT31;67835;51.968;5.646;2023-04-01T07:07:48;13.4;74.8
78541;SHT31;67835;51.968;5.646;2023-04-01T07:10:32;13.4;74.6
78541;SHT31;67835;51.968;5.646;2023-04-01T07:13:04;13.5;74.5
78541;SHT31;67835;51.968;5.646;2023-04-01T07:15:42;13.5;74.3
78541;SHT31;67835;51.968;5.646;2023-04-01T07:18:17;13.6;74.5
78541;SHT31;67835;51.968;5.646;2023-04-01T07:20:49;13.6;74.2
78541;SHT31;67835;51.968;5.646;2023-04-01T07:23:25;13.6;73.9
78541;SHT31;67835;51.968;5.646;2023-04-01T07:26:00;13.7;73.9
78541;SHT31;67835;51.968;5.646;2023-04-01T07:28:33;13.7;73.8
78541;SHT31;67835;51.968;5.646;2023-04-01T07:31:15;13.7;73.7
78541;SHT31;67835;51.968;5.646;2023-04-01T07:33:56;13.7;73.2
78541;SHT31;67835;51.968;5.646;2023-04-01T07:36:33;13.7;73.4
78541;SHT31;67835;51.968;5.646;2023-04-01T07:39:17;13.7;73.5
78541;SHT31;67835;51.968;5.646;2023-04-01T07:41:53;13.7;73.7
78541;SHT31;67835;51.968;5.646;2023-04-01T07:44:31;13.8;73.1
78541;SHT31;67835;51.968;5.646;2023-04-01T07:47:20;13.8;73.0
78541;SHT31;67835;51.968;5.646;2023-04-01T07:50:05;13.8;73.0
78541;SHT31;67835;51.968;5.646;2023-04-01T07:52:47;13.8;72.9
78541;SHT31;67835;51.968;5.646;2023-04-01T07:55:26;13.8;72.4
78541;SHT31;67835;51.968;5.646;2023-04-01T07:58:08;13.8;72.3
78541;SHT31;67835;51.968;5.646;2023-04-01T08:00:46;13.8;72.2
78541;SHT31;67835;51.968;5.646;2023-04-01T08:03:48;13.8;72.5
78541;SHT31;67835;51.968;5.646;2023-04-01T08:06:28;13.8;72.5
78541;SHT31;67835;51.968;5.646;2023-04-01T08:09:10;13.8;72.2
78541;SHT31;67835;51.968;5.646;2023-04-01T08:11:57;13.8;72.5
78541;SHT31;67835;51.968;5.646;2023-04-01T08:14:39;13.8;72.5
78541;SHT31;67835;51.968;5.646;2023-04-01T08:17:19;13.9;72.5
78541;SHT31;67835;51.968;5.646;2023-04-01T08:20:07;13.9;72.3
78541;SHT31;67835;51.968;5.646;2023-04-01T08:22:42;13.9;72.5
78541;SHT31;67835;51.968;5.646;2023-04-01T08:25:20;14.0;71.9
78541;SHT31;67835;51.968;5.646;2023-04-01T08:27:56;14.0;72.1
78541;SHT31;67835;51.968;5.646;2023-04-01T08:30:35;14.0;72.0
78541;SHT31;67835;51.968;5.646;2023-04-01T08:33:15;14.1;71.9
78541;SHT31;67835;51.968;5.646;2023-04-01T08:35:53;14.1;71.9
78541;SHT31;67835;51.968;5.646;2023-04-01T08:38:28;14.1;72.2
78541;SHT31;67835;51.968;5.646;2023-04-01T08:41:12;14.1;72.1
78541;SHT31;67835;51.968;5.646;2023-04-01T08:44:08;14.1;72.3
78541;SHT31;67835;51.968;5.646;2023-04-01T08:47:46;14.1;72.6
78541;SHT31;67835;51.968;5.646;2023-04-01T08:50:43;14.1;72.2
78541;SHT31;67835;51.968;5.646;2023-04-01T08:53:26;14.1;72.5
78541;SHT31;67835;51.968;5.646;2023-04-01T08:56:08;14.1;72.3
78541;SHT31;67835;51.968;5.646;2023-04-01T09:00:18;14.1;72.4
78541;SHT31;67835;51.968;5.646;2023-04-01T09:03:02;14.2;71.9
78541;SHT31;67835;51.968;5.646;2023-04-01T09:08:42;14.2;71.7
78541;SHT31;67835;51.968;5.646;2023-04-01T09:11:24;14.2;71.7
78541;SHT31;67835;51.968;5.646;2023-04-01T09:15:03;14.2;71.6
78541;SHT31;67835;51.968;5.646;2023-04-01T09:20:49;14.2;71.0
78541;SHT31;67835;51.968;5.646;2023-04-01T09:23:52;14.2;71.5
78541;SHT31;67835;51.968;5.646;2023-04-01T09:26:46;14.3;72.0
78541;SHT31;67835;51.968;5.646;2023-04-01T09:29:32;14.4;71.7
78541;SHT31;67835;51.968;5.646;2023-04-01T09:32:20;14.5;71.2
78541;SHT31;67835;51.968;5.646;2023-04-01T09:34:57;14.5;70.5
78541;SHT31;67835;51.968;5.646;2023-04-01T09:37:35;14.6;70.7
78541;SHT31;67835;51.968;5.646;2023-04-01T09:40:15;14.6;71.0
78541;SHT31;67835;51.968;5.646;2023-04-01T09:43:15;14.6;70.7
78541;SHT31;67835;51.968;5.646;2023-04-01T09:46:11;14.7;70.2
78541;SHT31;67835;51.968;5.646;2023-04-01T09:50:26;14.7;69.9
78541;SHT31;67835;51.968;5.646;2023-04-01T09:53:11;14.8;69.9
78541;SHT31;67835;51.968;5.646;2023-04-01T09:56:19;14.8;70.3
78541;SHT31;67835;51.968;5.646;2023-04-01T09:59:14;14.8;69.9
78541;SHT31;67835;51.968;5.646;2023-04-01T10:02:46;14.9;69.6
78541;SHT31;67835;51.968;5.646;2023-04-01T10:06:18;14.9;68.8
78541;SHT31;67835;51.968;5.646;2023-04-01T10:09:19;15.0;69.5
78541;SHT31;67835;51.968;5.646;2023-04-01T10:17:02;15.1;69.1
78541;SHT31;67835;51.968;5.646;2023-04-01T10:20:03;15.2;71.2
78541;SHT31;67835;51.968;5.646;2023-04-01T10:23:18;15.3;69.0
78541;SHT31;67835;51.968;5.646;2023-04-01T10:26:12;15.4;68.4
78541;SHT31;67835;51.968;5.646;2023-04-01T10:29:00;15.4;68.2
78541;SHT31;67835;51.968;5.646;2023-04-01T10:39:38;16.0;66.9
78541;SHT31;67835;51.968;5.646;2023-04-01T10:42:56;16.3;65.8
78541;SHT31;67835;51.968;5.646;2023-04-01T10:54:01;17.0;63.7
78541;SHT31;67835;51.968;5.646;2023-04-01T10:56:39;17.3;61.1
78541;SHT31;67835;51.968;5.646;2023-04-01T11:06:53;17.7;60.5
78541;SHT31;67835;51.968;5.646;2023-04-01T11:10:06;17.8;59.6
78541;SHT31;67835;51.968;5.646;2023-04-01T11:13:04;17.9;59.8
78541;SHT31;67835;51.968;5.646;2023-04-01T11:16:56;17.9;59.4
78541;SHT31;67835;51.968;5.646;2023-04-01T11:19:52;17.8;59.0
78541;SHT31;67835;51.968;5.646;2023-04-01T11:22:52;17.8;58.1
78541;SHT31;67835;51.968;5.646;2023-04-01T11:25:48;17.7;58.6
78541;SHT31;67835;51.968;5.646;2023-04-01T11:29:35;17.7;59.1
78541;SHT31;67835;51.968;5.646;2023-04-01T11:32:23;17.7;60.1
78541;SHT31;67835;51.968;5.646;2023-04-01T11:35:17;17.6;59.9
78541;SHT31;67835;51.968;5.646;2023-04-01T11:37:57;17.6;60.2
78541;SHT31;67835;51.968;5.646;2023-04-01T11:40:37;17.6;59.7
78541;SHT31;67835;51.968;5.646;2023-04-01T11:43:15;17.6;59.5
78541;SHT31;67835;51.968;5.646;2023-04-01T11:45:56;17.6;60.0
78541;SHT31;67835;51.968;5.646;2023-04-01T11:48:50;17.6;60.0
78541;SHT31;67835;51.968;5.646;2023-04-01T11:51:34;17.6;59.3
78541;SHT31;67835;51.968;5.646;2023-04-01T11:54:19;17.7;59.0
78541;SHT31;67835;51.968;5.646;2023-04-01T11:57:29;17.7;59.2
78541;SHT31;67835;51.968;5.646;2023-04-01T12:00:28;17.6;59.0
78541;SHT31;67835;51.968;5.646;2023-04-01T12:03:16;17.5;59.3
78541;SHT31;67835;51.968;5.646;2023-04-01T12:05:57;17.4;60.1
78541;SHT31;67835;51.968;5.646;2023-04-01T12:08:40;17.3;60.8
78541;SHT31;67835;51.968;5.646;2023-04-01T12:11:19;17.2;61.3
78541;SHT31;67835;51.968;5.646;2023-04-01T12:13:59;17.1;60.9
78541;SHT31;67835;51.968;5.646;2023-04-01T12:16:54;17.0;61.7
78541;SHT31;67835;51.968;5.646;2023-04-01T12:19:34;16.9;60.9
78541;SHT31;67835;51.968;5.646;2023-04-01T12:22:23;16.9;60.9
78541;SHT31;67835;51.968;5.646;2023-04-01T12:24:59;16.9;60.6
78541;SHT31;67835;51.968;5.646;2023-04-01T12:27:39;16.8;62.0
78541;SHT31;67835;51.968;5.646;2023-04-01T12:30:19;16.8;61.3
78541;SHT31;67835;51.968;5.646;2023-04-01T12:33:03;16.8;62.2
78541;SHT31;67835;51.968;5.646;2023-04-01T12:35:45;16.8;62.4
78541;SHT31;67835;51.968;5.646;2023-04-01T12:38:30;16.7;62.0
78541;SHT31;67835;51.968;5.646;2023-04-01T12:41:08;16.7;62.3
78541;SHT31;67835;51.968;5.646;2023-04-01T12:44:15;16.7;62.1
78541;SHT31;67835;51.968;5.646;2023-04-01T12:47:12;16.7;62.9
78541;SHT31;67835;51.968;5.646;2023-04-01T12:49:55;16.7;62.7
78541;SHT31;67835;51.968;5.646;2023-04-01T12:52:30;16.7;62.4
78541;SHT31;67835;51.968;5.646;2023-04-01T12:55:35;16.7;61.5
78541;SHT31;67835;51.968;5.646;2023-04-01T12:58:38;16.7;62.3
78541;SHT31;67835;51.968;5.646;2023-04-01T13:01:29;16.7;62.8
78541;SHT31;67835;51.968;5.646;2023-04-01T13:04:23;16.7;62.8
78541;SHT31;67835;51.968;5.646;2023-04-01T13:07:12;16.7;62.2
78541;SHT31;67835;51.968;5.646;2023-04-01T13:09:55;16.6;62.3
78541;SHT31;67835;51.968;5.646;2023-04-01T13:13:05;16.6;62.3
78541;SHT31;67835;51.968;5.646;2023-04-01T13:15:41;16.7;63.5
78541;SHT31;67835;51.968;5.646;2023-04-01T13:18:24;16.7;63.9
78541;SHT31;67835;51.968;5.646;2023-04-01T13:21:01;16.7;63.1
78541;SHT31;67835;51.968;5.646;2023-04-01T13:23:48;16.8;63.2
78541;SHT31;67835;51.968;5.646;2023-04-01T13:26:29;16.8;63.0
78541;SHT31;67835;51.968;5.646;2023-04-01T13:29:12;16.8;63.3
78541;SHT31;67835;51.968;5.646;2023-04-01T13:31:59;16.8;63.4
78541;SHT31;67835;51.968;5.646;2023-04-01T13:34:44;16.8;63.1
78541;SHT31;67835;51.968;5.646;2023-04-01T13:37:26;16.7;63.2
78541;SHT31;67835;51.968;5.646;2023-04-01T13:40:16;16.7;63.1
78541;SHT31;67835;51.968;5.646;2023-04-01T13:42:56;16.6;64.2
78541;SHT31;67835;51.968;5.646;2023-04-01T13:45:38;16.6;64.6
78541;SHT31;67835;51.968;5.646;2023-04-01T13:48:20;16.5;64.4
78541;SHT31;67835;51.968;5.646;2023-04-01T13:51:17;16.5;64.1
78541;SHT31;67835;51.968;5.646;2023-04-01T13:59:00;16.3;65.5
78541;SHT31;67835;51.968;5.646;2023-04-01T14:01:41;16.3;65.9
78541;SHT31;67835;51.968;5.646;2023-04-01T14:04:56;16.2;66.4
78541;SHT31;67835;51.968;5.646;2023-04-01T14:07:55;16.1;67.1
78541;SHT31;67835;51.968;5.646;2023-04-01T14:10:32;16.1;67.4
78541;SHT31;67835;51.968;5.646;2023-04-01T14:13:12;16.0;68.4
78541;SHT31;67835;51.968;5.646;2023-04-01T14:16:02;16.0;68.0
78541;SHT31;67835;51.968;5.646;2023-04-01T14:18:52;16.0;68.2
78541;SHT31;67835;51.968;5.646;2023-04-01T14:21:34;16.0;67.2
78541;SHT31;67835;51.968;5.646;2023-04-01T14:24:23;16.0;67.5
78541;SHT31;67835;51.968;5.646;2023-04-01T14:27:19;15.9;67.2
78541;SHT31;67835;51.968;5.646;2023-04-01T14:30:42;15.9;66.9
78541;SHT31;67835;51.968;5.646;2023-04-01T14:33:23;15.9;66.7
78541;SHT31;67835;51.968;5.646;2023-04-01T14:36:18;15.9;66.4
78541;SHT31;67835;51.968;5.646;2023-04-01T14:38:54;15.9;67.0
78541;SHT31;67835;51.968;5.646;2023-04-01T14:41:41;15.8;67.1
78541;SHT31;67835;51.968;5.646;2023-04-01T14:44:29;15.8;66.9
78541;SHT31;67835;51.968;5.646;2023-04-01T14:47:46;15.8;67.1
78541;SHT31;67835;51.968;5.646;2023-04-01T14:50:20;15.8;67.4
78541;SHT31;67835;51.968;5.646;2023-04-01T14:52:57;15.7;67.8
78541;SHT31;67835;51.968;5.646;2023-04-01T14:55:31;15.7;67.8
78541;SHT31;67835;51.968;5.646;2023-04-01T14:58:09;15.7;68.3
78541;SHT31;67835;51.968;5.646;2023-04-01T15:00:48;15.7;68.7
78541;SHT31;67835;51.968;5.646;2023-04-01T15:03:23;15.7;68.3
78541;SHT31;67835;51.968;5.646;2023-04-01T15:06:15;15.7;68.9
78541;SHT31;67835;51.968;5.646;2023-04-01T15:08:54;15.8;68.6
78541;SHT31;67835;51.968;5.646;2023-04-01T15:11:41;15.8;68.4
78541;SHT31;67835;51.968;5.646;2023-04-01T15:14:34;15.8;68.0
78541;SHT31;67835;51.968;5.646;2023-04-01T15:17:32;15.8;67.6
78541;SHT31;67835;51.968;5.646;2023-04-01T15:20:29;15.8;67.8
78541;SHT31;67835;51.968;5.646;2023-04-01T15:23:16;15.8;67.4
78541;SHT31;67835;51.968;5.646;2023-04-01T15:26:14;15.8;67.5
78541;SHT31;67835;51.968;5.646;2023-04-01T15:29:03;15.8;67.8
78541;SHT31;67835;51.968;5.646;2023-04-01T15:31:43;15.8;67.9
78541;SHT31;67835;51.968;5.646;2023-04-01T15:34:26;15.8;67.4
78541;SHT31;67835;51.968;5.646;2023-04-01T15:37:04;15.8;67.2
78541;SHT31;67835;51.968;5.646;2023-04-01T15:39:51;15.8;67.6
78541;SHT31;67835;51.968;5.646;2023-04-01T15:42:36;15.8;66.2
78541;SHT31;67835;51.968;5.646;2023-04-01T15:45:16;15.7;66.1
78541;SHT31;67835;51.968;5.646;2023-04-01T15:47:58;15.7;66.8
78541;SHT31;67835;51.968;5.646;2023-04-01T15:50:49;15.6;67.4
78541;SHT31;67835;51.968;5.646;2023-04-01T15:53:34;15.6;67.6
78541;SHT31;67835;51.968;5.646;2023-04-01T15:56:30;15.5;67.7
78541;SHT31;67835;51.968;5.646;2023-04-01T15:59:19;15.5;67.6
78541;SHT31;67835;51.968;5.646;2023-04-01T16:01:59;15.4;67.0
78541;SHT31;67835;51.968;5.646;2023-04-01T16:04:44;15.4;67.5
78541;SHT31;67835;51.968;5.646;2023-04-01T16:07:27;15.4;66.3
78541;SHT31;67835;51.968;5.646;2023-04-01T16:10:21;15.3;67.3
78541;SHT31;67835;51.968;5.646;2023-04-01T16:13:09;15.3;67.8
78541;SHT31;67835;51.968;5.646;2023-04-01T16:15:50;15.2;67.8
78541;SHT31;67835;51.968;5.646;2023-04-01T16:18:37;15.2;67.7
78541;SHT31;67835;51.968;5.646;2023-04-01T16:21:20;15.2;67.1
78541;SHT31;67835;51.968;5.646;2023-04-01T16:23:55;15.1;67.0
78541;SHT31;67835;51.968;5.646;2023-04-01T16:26:29;15.1;67.3
78541;SHT31;67835;51.968;5.646;2023-04-01T16:29:16;15.0;67.1
78541;SHT31;67835;51.968;5.646;2023-04-01T16:31:52;15.0;67.0
78541;SHT31;67835;51.968;5.646;2023-04-01T16:34:32;15.0;67.4
78541;SHT31;67835;51.968;5.646;2023-04-01T16:37:10;15.0;67.6
78541;SHT31;67835;51.968;5.646;2023-04-01T16:39:54;14.9;67.4
78541;SHT31;67835;51.968;5.646;2023-04-01T16:42:43;14.9;67.5
78541;SHT31;67835;51.968;5.646;2023-04-01T16:45:32;14.9;67.1
78541;SHT31;67835;51.968;5.646;2023-04-01T16:48:12;14.9;66.9
78541;SHT31;67835;51.968;5.646;2023-04-01T16:50:58;14.9;66.9
78541;SHT31;67835;51.968;5.646;2023-04-01T16:53:43;14.9;66.9
78541;SHT31;67835;51.968;5.646;2023-04-01T16:56:20;14.9;67.1
78541;SHT31;67835;51.968;5.646;2023-04-01T16:59:01;14.9;67.3
78541;SHT31;67835;51.968;5.646;2023-04-01T17:01:43;14.9;67.5
78541;SHT31;67835;51.968;5.646;2023-04-01T17:04:23;14.9;67.1
78541;SHT31;67835;51.968;5.646;2023-04-01T17:07:01;14.9;67.1
78541;SHT31;67835;51.968;5.646;2023-04-01T17:09:48;14.9;66.9
78541;SHT31;67835;51.968;5.646;2023-04-01T17:12:26;14.8;66.7
78541;SHT31;67835;51.968;5.646;2023-04-01T17:15:04;14.8;66.2
78541;SHT31;67835;51.968;5.646;2023-04-01T17:17:45;14.8;66.2
78541;SHT31;67835;51.968;5.646;2023-04-01T17:20:30;14.8;66.8
78541;SHT31;67835;51.968;5.646;2023-04-01T17:23:13;14.8;66.0
78541;SHT31;67835;51.968;5.646;2023-04-01T17:26:08;14.7;65.1
78541;SHT31;67835;51.968;5.646;2023-04-01T17:28:52;14.7;65.3
78541;SHT31;67835;51.968;5.646;2023-04-01T17:31:37;14.6;65.8
78541;SHT31;67835;51.968;5.646;2023-04-01T17:34:35;14.5;65.8
78541;SHT31;67835;51.968;5.646;2023-04-01T17:37:22;14.5;66.3
78541;SHT31;67835;51.968;5.646;2023-04-01T17:40:03;14.4;66.0
78541;SHT31;67835;51.968;5.646;2023-04-01T17:42:41;14.4;66.1
78541;SHT31;67835;51.968;5.646;2023-04-01T17:45:21;14.3;66.2
78541;SHT31;67835;51.968;5.646;2023-04-01T17:48:03;14.3;66.3
78541;SHT31;67835;51.968;5.646;2023-04-01T17:51:02;14.3;66.1
78541;SHT31;67835;51.968;5.646;2023-04-01T17:53:44;14.2;65.8
78541;SHT31;67835;51.968;5.646;2023-04-01T17:56:32;14.1;66.2
78541;SHT31;67835;51.968;5.646;2023-04-01T17:59:13;14.1;66.6
78541;SHT31;67835;51.968;5.646;2023-04-01T18:01:57;14.1;67.0
78541;SHT31;67835;51.968;5.646;2023-04-01T18:05:11;14.0;66.9
78541;SHT31;67835;51.968;5.646;2023-04-01T18:08:37;14.0;66.8
78541;SHT31;67835;51.968;5.646;2023-04-01T18:11:19;14.0;66.6
78541;SHT31;67835;51.968;5.646;2023-04-01T18:14:23;13.9;66.7
78541;SHT31;67835;51.968;5.646;2023-04-01T18:17:11;13.9;66.0
78541;SHT31;67835;51.968;5.646;2023-04-01T18:19:50;13.8;66.4